Time;durP1;ratioP1;P1;durP2;ratioP2;P2;SDS_P1;SDS_P2;PMS_P1;PMS_P2;Temp;Humidity;BMP_temperature;BMP_pressure;BME280_temperature;BME280_humidity;BME280_pressure;Samples;Min_cycle;Max_cycle;Signal;HPM_P1;HPM_P2
2021/10/31 00:00:34;;;;;;;25.88;10.00;;;;;;;9.51;100.00;100613.28;5205857;28;20033;-72
2021/10/31 00:03:05;;;;;;;24.38;9.95;;;;;;;9.47;100.00;100618.13;5200160;28;20121;-72
2021/10/31 00:05:35;;;;;;;31.58;10.75;;;;;;;9.44;100.00;100621.16;5198912;28;20693;-72
2021/10/31 00:08:06;;;;;;;25.98;10.68;;;;;;;9.43;100.00;100614.09;5200125;28;20037;-72
2021/10/31 00:10:37;;;;;;;23.85;10.77;;;;;;;9.40;100.00;100621.63;5199976;28;20159;-72
2021/10/31 00:13:10;;;;;;;24.13;10.80;;;;;;;9.33;100.00;100626.78;5200386;28;20022;-73
2021/10/31 00:15:40;;;;;;;25.58;11.55;;;;;;;9.31;100.00;100626.13;5199303;28;20029;-72
2021/10/31 00:18:11;;;;;;;27.13;11.50;;;;;;;9.27;100.00;100627.44;5199497;28;20021;-72
2021/10/31 00:20:41;;;;;;;28.48;12.48;;;;;;;9.23;100.00;100621.56;5198560;28;20124;-72
2021/10/31 00:23:12;;;;;;;24.90;11.23;;;;;;;9.21;100.00;100628.94;5199969;28;20017;-72
2021/10/31 00:25:42;;;;;;;28.27;11.35;;;;;;;9.15;100.00;100628.75;5214607;28;20501;-72
2021/10/31 00:28:13;;;;;;;29.77;12.07;;;;;;;9.11;100.00;100624.72;5199979;28;20028;-72
2021/10/31 00:30:43;;;;;;;27.88;12.10;;;;;;;9.07;100.00;100624.19;5199077;28;20152;-72
2021/10/31 00:33:14;;;;;;;28.55;12.55;;;;;;;9.04;100.00;100628.06;5199752;28;20026;-72
2021/10/31 00:35:44;;;;;;;21.42;11.40;;;;;;;9.00;100.00;100640.06;5199142;28;20056;-72
2021/10/31 00:38:15;;;;;;;32.15;13.02;;;;;;;8.95;100.00;100634.38;5199517;28;20643;-72
2021/10/31 00:40:46;;;;;;;36.55;12.85;;;;;;;8.89;100.00;100642.22;5199305;28;20032;-72
2021/10/31 00:43:17;;;;;;;30.88;13.43;;;;;;;8.87;100.00;100642.34;5199543;28;20034;-72
2021/10/31 00:45:48;;;;;;;27.92;13.20;;;;;;;8.86;100.00;100640.69;5199219;28;20486;-72
2021/10/31 00:48:19;;;;;;;33.10;14.05;;;;;;;8.80;100.00;100642.16;5198930;28;20532;-72
2021/10/31 00:50:50;;;;;;;31.77;12.68;;;;;;;8.78;100.00;100640.63;5198892;28;20029;-72
2021/10/31 00:53:21;;;;;;;33.00;14.48;;;;;;;8.75;100.00;100636.44;5199782;28;20079;-72
2021/10/31 00:55:52;;;;;;;31.25;13.35;;;;;;;8.71;100.00;100634.25;5199134;28;20021;-72
2021/10/31 00:58:23;;;;;;;32.38;13.88;;;;;;;8.69;100.00;100641.59;5199215;28;20545;-72
2021/10/31 01:00:53;;;;;;;33.80;14.07;;;;;;;8.67;100.00;100638.22;5204337;28;20025;-72
2021/10/31 01:03:24;;;;;;;37.92;14.25;;;;;;;8.66;100.00;100625.88;5198990;28;20026;-72
2021/10/31 01:06:15;;;;;;;35.42;13.48;;;;;;;8.64;100.00;100635.91;5199246;28;20025;-72
2021/10/31 01:08:56;;;;;;;36.60;14.00;;;;;;;8.57;100.00;100631.16;5193855;28;20025;-72
2021/10/31 01:11:46;;;;;;;39.67;14.10;;;;;;;8.56;100.00;100636.66;5198353;28;20088;-72
2021/10/31 01:14:42;;;;;;;40.65;14.90;;;;;;;8.54;100.00;100636.00;5198787;28;20027;-72
2021/10/31 01:17:21;;;;;;;;;;;;;;;8.45;100.00;100624.41;5199003;28;20130;-72
2021/10/31 01:20:18;;;;;;;38.28;14.35;;;;;;;8.41;100.00;100628.38;5193090;28;20396;-72
2021/10/31 01:23:15;;;;;;;45.38;13.10;;;;;;;8.40;100.00;100641.94;5196173;28;20048;-72
2021/10/31 01:25:52;;;;;;;38.22;13.60;;;;;;;8.40;100.00;100647.28;5198451;28;20021;-72
2021/10/31 01:28:45;;;;;;;39.33;13.85;;;;;;;8.37;100.00;100652.91;5198475;28;20076;-72
2021/10/31 01:31:34;;;;;;;35.75;14.90;;;;;;;8.29;100.00;100651.00;5198236;28;20056;-72
2021/10/31 01:34:41;;;;;;;44.30;14.15;;;;;;;8.20;100.00;100642.09;5198074;28;20026;-72
2021/10/31 01:37:20;;;;;;;40.13;14.25;;;;;;;8.13;100.00;100642.84;5198425;28;20047;-72
2021/10/31 01:40:20;;;;;;;37.22;15.05;;;;;;;8.10;100.00;100644.00;5198905;28;20124;-72
2021/10/31 01:43:16;;;;;;;47.30;16.45;;;;;;;8.15;100.00;100643.56;5200859;28;20112;-72
2021/10/31 01:45:52;;;;;;;37.60;16.80;;;;;;;8.13;100.00;100646.34;5199371;28;20363;-72
2021/10/31 01:48:35;;;;;;;40.22;16.02;;;;;;;8.09;100.00;100646.84;5198477;28;20028;-72
2021/10/31 01:51:15;;;;;;;49.63;17.42;;;;;;;8.10;100.00;100653.88;5198323;28;20053;-72
2021/10/31 01:53:57;;;;;;;45.83;16.52;;;;;;;8.10;100.00;100652.03;5197891;28;20049;-72
2021/10/31 01:56:30;;;;;;;45.88;16.95;;;;;;;8.14;100.00;100647.22;5196513;28;20393;-72
2021/10/31 01:59:06;;;;;;;45.33;17.13;;;;;;;8.15;100.00;100648.91;5197018;28;20025;-72
2021/10/31 02:01:41;;;;;;;41.15;16.60;;;;;;;8.12;100.00;100657.22;5198163;28;20033;-72
2021/10/31 02:04:14;;;;;;;40.55;17.58;;;;;;;8.08;100.00;100651.31;5198440;28;20497;-71
2021/10/31 02:07:00;;;;;;;46.80;18.50;;;;;;;8.09;100.00;100644.19;5198257;28;20043;-72
2021/10/31 02:09:33;;;;;;;45.63;18.15;;;;;;;8.11;100.00;100650.19;5203556;28;20056;-72
2021/10/31 02:12:16;;;;;;;55.90;19.25;;;;;;;8.15;100.00;100635.53;5197626;28;20029;-72
2021/10/31 02:14:48;;;;;;;45.72;18.73;;;;;;;8.14;100.00;100640.03;5198237;28;20083;-72
2021/10/31 02:17:20;;;;;;;49.97;20.13;;;;;;;8.13;100.00;100635.66;5197959;28;20292;-72
2021/10/31 02:20:06;;;;;;;55.38;21.42;;;;;;;8.21;100.00;100633.06;5197454;28;20458;-72
2021/10/31 02:22:40;;;;;;;59.33;19.58;;;;;;;8.28;100.00;100630.59;5197723;28;20497;-72
2021/10/31 02:25:11;;;;;;;47.25;18.67;;;;;;;8.22;100.00;100628.56;5198514;28;20482;-72
2021/10/31 02:28:03;;;;;;;42.22;17.13;;;;;;;8.19;100.00;100631.56;5210747;28;20033;-71
2021/10/31 02:30:34;;;;;;;49.58;19.05;;;;;;;8.19;100.00;100624.38;5197438;28;20021;-72
2021/10/31 02:33:14;;;;;;;46.35;18.85;;;;;;;8.19;100.00;100623.53;5198258;28;20017;-72
2021/10/31 02:35:45;;;;;;;55.65;21.08;;;;;;;8.19;100.00;100615.53;5197756;28;20024;-72
2021/10/31 02:38:15;;;;;;;51.60;20.10;;;;;;;8.16;100.00;100619.34;5197621;28;20097;-70
2021/10/31 02:40:46;;;;;;;44.95;18.13;;;;;;;8.12;100.00;100617.97;5197253;28;20067;-72
2021/10/31 02:43:16;;;;;;;55.83;20.73;;;;;;;8.12;100.00;100625.97;5197593;28;20108;-72
2021/10/31 02:45:47;;;;;;;53.83;19.70;;;;;;;8.20;100.00;100625.22;5197732;28;20293;-72
2021/10/31 02:48:20;;;;;;;54.08;19.92;;;;;;;8.21;100.00;100624.22;5197710;28;20017;-72
2021/10/31 02:50:57;;;;;;;50.45;19.02;;;;;;;8.17;100.00;100621.00;5197963;28;20059;-72
2021/10/31 02:53:33;;;;;;;56.25;19.25;;;;;;;8.15;100.00;100619.50;5197416;28;20529;-73
2021/10/31 02:56:18;;;;;;;50.72;19.58;;;;;;;8.14;100.00;100620.50;5197658;28;20033;-72
2021/10/31 02:58:54;;;;;;;51.50;19.00;;;;;;;8.14;100.00;100612.50;5197473;28;20033;-72
2021/10/31 03:01:27;;;;;;;56.53;21.55;;;;;;;8.12;100.00;100617.13;5197844;28;20135;-72
2021/10/31 03:03:58;;;;;;;50.63;19.10;;;;;;;8.12;100.00;100617.13;5197518;28;20400;-72
2021/10/31 03:06:29;;;;;;;49.33;18.60;;;;;;;8.10;100.00;100619.13;5197231;28;20155;-72
2021/10/31 03:09:00;;;;;;;49.63;17.05;;;;;;;8.09;100.00;100614.78;5197044;28;20037;-72
2021/10/31 03:11:30;;;;;;;46.35;17.23;;;;;;;8.03;100.00;100613.56;5197352;28;20024;-72
2021/10/31 03:14:01;;;;;;;47.95;18.73;;;;;;;8.00;100.00;100604.03;5197146;28;20112;-72
2021/10/31 03:16:35;;;;;;;56.42;20.67;;;;;;;8.02;100.00;100601.19;5197556;28;20559;-72
2021/10/31 03:19:05;;;;;;;64.50;22.63;;;;;;;8.06;100.00;100607.91;5196790;28;20026;-72
2021/10/31 03:21:36;;;;;;;60.13;21.27;;;;;;;8.12;100.00;100604.59;5197842;28;20367;-72
2021/10/31 03:24:06;;;;;;;56.25;21.65;;;;;;;8.22;100.00;100597.31;5200358;28;20033;-72
2021/10/31 03:26:37;;;;;;;58.20;21.48;;;;;;;8.35;100.00;100599.59;5199633;28;20025;-72
2021/10/31 03:29:07;;;;;;;56.95;19.95;;;;;;;8.43;100.00;100593.47;5200547;28;20438;-73
2021/10/31 03:31:38;;;;;;;59.35;21.30;;;;;;;8.40;100.00;100591.97;5200834;28;20029;-72
2021/10/31 03:34:08;;;;;;;65.05;20.80;;;;;;;8.47;100.00;100589.50;5201193;28;20022;-72
2021/10/31 03:36:39;;;;;;;51.58;18.70;;;;;;;8.52;100.00;100582.66;5200806;28;20029;-72
2021/10/31 03:39:09;;;;;;;60.33;21.25;;;;;;;8.55;100.00;100579.69;5199733;28;20507;-73
2021/10/31 03:41:40;;;;;;;45.65;19.33;;;;;;;8.55;100.00;100577.00;5200779;28;20454;-73
2021/10/31 03:44:15;;;;;;;47.95;18.48;;;;;;;8.55;100.00;100579.69;5200557;28;20025;-72
2021/10/31 03:46:46;;;;;;;48.77;18.20;;;;;;;8.57;100.00;100564.31;5200693;28;20353;-72
2021/10/31 03:49:16;;;;;;;44.47;18.10;;;;;;;8.59;100.00;100564.16;5200188;28;20487;-73
2021/10/31 03:51:47;;;;;;;38.53;15.90;;;;;;;8.60;100.00;100563.16;5200709;28;20116;-72
2021/10/31 03:54:17;;;;;;;42.47;17.30;;;;;;;8.62;100.00;100555.81;5201218;28;20067;-73
2021/10/31 03:56:48;;;;;;;41.97;17.13;;;;;;;8.63;100.00;100559.31;5200601;28;20021;-72
2021/10/31 03:59:18;;;;;;;40.45;16.63;;;;;;;8.65;100.00;100566.19;5200154;28;20020;-72
2021/10/31 04:01:48;;;;;;;41.38;16.23;;;;;;;8.68;100.00;100562.34;5200473;28;20375;-72
2021/10/31 04:04:19;;;;;;;41.00;16.05;;;;;;;8.65;100.00;100560.00;5200110;28;20485;-72
2021/10/31 04:06:50;;;;;;;39.47;16.05;;;;;;;8.67;100.00;100555.31;5200380;28;20124;-72
2021/10/31 04:09:20;;;;;;;38.22;15.15;;;;;;;8.69;100.00;100561.38;5199334;28;20025;-73
2021/10/31 04:11:51;;;;;;;36.58;15.85;;;;;;;8.76;100.00;100562.38;5200010;28;20029;-72
2021/10/31 04:14:21;;;;;;;37.97;15.15;;;;;;;8.81;100.00;100549.38;5200580;28;20028;-72
2021/10/31 04:16:52;;;;;;;36.78;15.63;;;;;;;8.87;100.00;100556.75;5199874;28;20017;-73
2021/10/31 04:19:22;;;;;;;36.05;15.35;;;;;;;8.87;100.00;100551.38;5199614;28;20018;-72
2021/10/31 04:21:53;;;;;;;38.58;16.63;;;;;;;8.88;100.00;100544.19;5200147;28;20021;-73
2021/10/31 04:24:24;;;;;;;37.38;15.25;;;;;;;8.91;100.00;100547.41;5199861;28;20075;-73
2021/10/31 04:26:58;;;;;;;36.90;15.77;;;;;;;8.91;100.00;100547.41;5199593;28;20106;-72
2021/10/31 04:29:29;;;;;;;41.17;16.97;;;;;;;8.89;100.00;100540.56;5199525;28;20020;-72
2021/10/31 04:32:00;;;;;;;34.42;14.85;;;;;;;8.91;100.00;100535.84;5199874;28;20264;-72
2021/10/31 04:34:30;;;;;;;34.35;14.98;;;;;;;8.88;100.00;100517.44;5199059;28;20036;-72
2021/10/31 04:37:02;;;;;;;32.17;14.75;;;;;;;8.88;100.00;100530.81;5199529;28;20397;-72
2021/10/31 04:39:33;;;;;;;36.55;15.90;;;;;;;8.89;100.00;100530.69;5198847;28;20064;-73
2021/10/31 04:42:05;;;;;;;34.63;15.23;;;;;;;8.91;100.00;100531.34;5200001;28;20103;-72
2021/10/31 04:44:37;;;;;;;42.83;15.13;;;;;;;8.89;100.00;100519.97;5199759;28;20022;-72
2021/10/31 04:47:08;;;;;;;46.47;16.33;;;;;;;8.92;100.00;100526.81;5199826;28;20449;-72
2021/10/31 04:49:39;;;;;;;40.78;16.63;;;;;;;8.92;100.00;100516.13;5198987;28;20045;-72
2021/10/31 04:52:10;;;;;;;42.92;15.95;;;;;;;8.97;100.00;100524.50;5199066;28;20028;-72
2021/10/31 04:54:40;;;;;;;35.58;14.80;;;;;;;9.02;100.00;100511.47;5199895;28;20489;-72
2021/10/31 04:57:11;;;;;;;34.55;14.63;;;;;;;9.06;100.00;100512.81;5199411;28;20045;-73
2021/10/31 04:59:41;;;;;;;28.55;13.85;;;;;;;9.06;100.00;100502.94;5205738;28;20052;-73
2021/10/31 05:02:12;;;;;;;30.13;13.48;;;;;;;9.17;100.00;100503.63;5199464;28;20029;-73
2021/10/31 05:04:42;;;;;;;32.22;13.43;;;;;;;9.23;100.00;100500.28;5198768;28;20056;-72
2021/10/31 05:07:15;;;;;;;36.00;12.18;;;;;;;9.23;100.00;100498.44;5199510;28;20321;-73
2021/10/31 05:09:46;;;;;;;28.00;12.75;;;;;;;9.25;100.00;100500.97;5198597;28;20018;-73
2021/10/31 05:12:17;;;;;;;26.73;12.75;;;;;;;9.26;100.00;100495.44;5198765;28;20025;-72
2021/10/31 05:14:48;;;;;;;24.30;11.88;;;;;;;9.26;100.00;100486.59;5199179;28;20025;-73
2021/10/31 05:17:19;;;;;;;25.13;11.32;;;;;;;9.27;100.00;100497.13;5198197;28;20366;-73
2021/10/31 05:19:49;;;;;;;20.77;11.25;;;;;;;9.29;100.00;100488.94;5198587;28;20434;-73
2021/10/31 05:22:20;;;;;;;25.13;11.07;;;;;;;9.24;100.00;100492.09;5198764;28;20033;-72
2021/10/31 05:24:50;;;;;;;28.05;11.23;;;;;;;9.22;100.00;100491.41;5198810;28;20017;-72
2021/10/31 05:27:21;;;;;;;22.35;10.73;;;;;;;9.21;100.00;100489.75;5198688;28;20508;-72
2021/10/31 05:29:51;;;;;;;19.70;10.52;;;;;;;9.22;100.00;100487.91;5198089;28;20036;-73
2021/10/31 05:32:22;;;;;;;22.10;10.02;;;;;;;9.16;100.00;100480.56;5198759;28;20029;-73
2021/10/31 05:34:52;;;;;;;23.30;11.30;;;;;;;9.08;100.00;100476.00;5198683;28;20355;-72
2021/10/31 05:37:23;;;;;;;21.05;10.20;;;;;;;9.06;100.00;100475.34;5198043;28;20043;-72
2021/10/31 05:39:53;;;;;;;18.52;10.00;;;;;;;9.01;100.00;100475.00;5198114;28;20083;-73
2021/10/31 05:42:24;;;;;;;25.05;10.77;;;;;;;9.02;100.00;100455.28;5198721;28;20455;-72
2021/10/31 05:44:54;;;;;;;21.40;10.55;;;;;;;8.98;100.00;100453.94;5198648;28;20432;-72
2021/10/31 05:47:25;;;;;;;21.25;10.65;;;;;;;8.99;100.00;100451.09;5198049;28;20017;-72
2021/10/31 05:49:57;;;;;;;16.73;8.80;;;;;;;9.08;100.00;100457.28;5197776;28;20021;-73
2021/10/31 05:52:27;;;;;;;22.38;10.00;;;;;;;9.04;100.00;100456.78;5197969;28;20037;-73
2021/10/31 05:54:59;;;;;;;19.33;9.73;;;;;;;9.05;100.00;100447.75;5197868;28;20493;-73
2021/10/31 05:57:30;;;;;;;18.52;8.90;;;;;;;9.04;100.00;100438.06;5197632;28;20116;-73
2021/10/31 06:00:05;;;;;;;17.25;9.32;;;;;;;9.05;100.00;100439.72;5204165;28;20147;-73
2021/10/31 06:02:35;;;;;;;16.17;8.73;;;;;;;9.06;100.00;100437.88;5198037;28;20033;-73
2021/10/31 06:05:08;;;;;;;16.27;8.90;;;;;;;9.09;100.00;100445.59;5197438;28;20021;-76
2021/10/31 06:07:39;;;;;;;15.30;9.30;;;;;;;9.11;100.00;100437.41;5197840;28;20033;-75
2021/10/31 06:10:11;;;;;;;18.63;9.50;;;;;;;9.12;100.00;100437.22;5197692;28;20025;-77
2021/10/31 06:12:44;;;;;;;16.15;8.45;;;;;;;9.12;100.00;100429.19;5198112;28;20313;-76
2021/10/31 06:15:17;;;;;;;18.80;9.85;;;;;;;9.16;100.00;100413.66;5198026;28;20056;-75
2021/10/31 06:17:48;;;;;;;20.63;9.18;;;;;;;9.14;100.00;100404.97;5197320;28;20033;-75
2021/10/31 06:20:18;;;;;;;23.05;8.75;;;;;;;9.12;100.00;100423.00;5197665;28;20028;-75
2021/10/31 06:22:49;;;;;;;19.05;8.68;;;;;;;9.03;100.00;100422.16;5197581;28;20112;-75
2021/10/31 06:25:19;;;;;;;18.40;9.68;;;;;;;9.02;100.00;100415.97;5197888;28;20045;-74
2021/10/31 06:27:50;;;;;;;19.77;9.77;;;;;;;8.99;100.00;100418.16;5197679;28;20462;-75
2021/10/31 06:30:20;;;;;;;18.05;8.73;;;;;;;9.02;100.00;100426.69;5197321;28;20033;-75
2021/10/31 06:32:51;;;;;;;18.23;8.93;;;;;;;8.98;100.00;100417.31;5197157;28;20022;-74
2021/10/31 06:35:21;;;;;;;19.25;8.98;;;;;;;8.96;100.00;100429.19;5198149;28;20030;-79
2021/10/31 06:37:52;;;;;;;18.88;9.80;;;;;;;8.94;100.00;100432.03;5197516;28;20033;-74
2021/10/31 06:40:22;;;;;;;22.95;9.95;;;;;;;8.98;100.00;100419.16;5197049;28;20325;-75
2021/10/31 06:42:53;;;;;;;19.95;9.13;;;;;;;8.95;100.00;100414.97;5198041;28;20060;-74
2021/10/31 06:45:23;;;;;;;18.98;9.02;;;;;;;8.94;100.00;100412.47;5197294;28;20021;-75
2021/10/31 06:47:54;;;;;;;18.02;9.10;;;;;;;8.89;100.00;100404.94;5197603;28;20045;-75
2021/10/31 06:50:24;;;;;;;21.90;9.82;;;;;;;8.88;100.00;100400.56;5196961;28;20025;-74
2021/10/31 06:52:55;;;;;;;18.83;9.27;;;;;;;8.91;100.00;100394.06;5192375;28;20163;-74
2021/10/31 06:55:25;;;;;;;16.35;8.82;;;;;;;8.93;100.00;100392.06;5205757;28;20039;-75
2021/10/31 06:57:56;;;;;;;17.42;9.05;;;;;;;8.89;100.00;100396.94;5198614;28;20198;-75
2021/10/31 07:00:27;;;;;;;19.05;9.32;;;;;;;8.93;100.00;100386.69;5200015;28;20059;-75
2021/10/31 07:02:57;;;;;;;19.30;9.75;;;;;;;8.95;100.00;100388.22;5200258;28;20288;-75
2021/10/31 07:05:28;;;;;;;20.88;9.52;;;;;;;8.96;100.00;100383.72;5199865;28;20029;-75
2021/10/31 07:07:58;;;;;;;17.63;9.32;;;;;;;8.99;100.00;100389.56;5200106;28;20131;-74
2021/10/31 07:10:29;;;;;;;17.10;9.35;;;;;;;9.05;100.00;100380.88;5200281;28;20481;-75
2021/10/31 07:12:59;;;;;;;17.98;8.27;;;;;;;9.13;100.00;100379.19;5200316;28;20033;-75
2021/10/31 07:15:30;;;;;;;15.98;8.48;;;;;;;9.19;100.00;100375.84;5200822;28;20100;-75
2021/10/31 07:18:00;;;;;;;15.88;8.18;;;;;;;9.28;100.00;100374.81;5199957;28;20029;-76
2021/10/31 07:20:32;;;;;;;15.43;7.93;;;;;;;9.38;100.00;100362.09;5200522;28;20033;-75
2021/10/31 07:23:03;;;;;;;16.50;8.15;;;;;;;9.49;100.00;100364.41;5200480;28;20100;-75
2021/10/31 07:25:34;;;;;;;15.15;7.03;;;;;;;9.57;100.00;100363.56;5200724;28;20124;-75
2021/10/31 07:28:05;;;;;;;16.98;7.53;;;;;;;9.67;100.00;100366.88;5200859;28;20159;-75
2021/10/31 07:30:36;;;;;;;14.00;7.28;;;;;;;9.78;100.00;100371.03;5199858;28;20683;-75
2021/10/31 07:33:07;;;;;;;15.85;6.97;;;;;;;9.89;100.00;100362.63;5201231;28;20021;-75
2021/10/31 07:35:37;;;;;;;11.05;5.80;;;;;;;9.99;100.00;100367.75;5200669;28;20030;-74
2021/10/31 07:38:08;;;;;;;10.25;5.90;;;;;;;10.07;100.00;100365.03;5200207;28;20116;-75
2021/10/31 07:40:39;;;;;;;12.45;5.72;;;;;;;10.16;100.00;100371.22;5199895;28;20026;-75
2021/10/31 07:43:10;;;;;;;14.00;5.97;;;;;;;10.27;100.00;100377.03;5200088;28;20108;-75
2021/10/31 07:45:40;;;;;;;13.52;5.18;;;;;;;10.46;100.00;100386.50;5195382;28;20112;-75
2021/10/31 07:48:11;;;;;;;9.32;5.07;;;;;;;10.50;100.00;100393.19;5192657;28;20136;-75
2021/10/31 07:50:42;;;;;;;8.85;4.55;;;;;;;10.51;100.00;100385.97;5215426;28;20025;-75
2021/10/31 07:53:13;;;;;;;11.30;4.88;;;;;;;10.51;100.00;100372.56;5199978;28;20406;-75
2021/10/31 07:55:49;;;;;;;7.25;4.82;;;;;;;10.52;100.00;100369.69;5200195;28;20037;-76
2021/10/31 07:58:22;;;;;;;7.93;4.65;;;;;;;10.46;100.00;100359.69;5200054;28;20037;-75
2021/10/31 08:00:53;;;;;;;10.07;4.75;;;;;;;10.44;100.00;100351.00;5201317;28;20071;-75
2021/10/31 08:03:24;;;;;;;11.20;4.32;;;;;;;10.46;100.00;100337.38;5208700;28;20029;-75
2021/10/31 08:05:54;;;;;;;6.20;4.10;;;;;;;10.41;100.00;100335.25;5208679;28;20082;-75
2021/10/31 08:08:26;;;;;;;7.05;3.80;;;;;;;10.47;100.00;100329.16;5208379;28;20116;-75
2021/10/31 08:10:57;;;;;;;8.10;3.53;;;;;;;10.48;100.00;100320.09;5208261;28;20117;-76
2021/10/31 08:13:28;;;;;;;6.93;3.70;;;;;;;10.49;100.00;100311.06;5209008;28;20104;-75
2021/10/31 08:15:59;;;;;;;4.70;3.20;;;;;;;10.50;100.00;100307.34;5208871;28;20025;-76
2021/10/31 08:18:30;;;;;;;4.68;3.42;;;;;;;10.54;100.00;100308.69;5208636;28;20032;-76
2021/10/31 08:21:02;;;;;;;7.35;3.38;;;;;;;10.59;100.00;100322.38;5208855;28;20225;-75
2021/10/31 08:23:32;;;;;;;7.22;3.58;;;;;;;10.65;100.00;100325.38;5208593;28;20025;-75
2021/10/31 08:26:03;;;;;;;7.47;3.35;;;;;;;10.79;100.00;100301.28;5208369;28;20044;-75
2021/10/31 08:28:36;;;;;;;8.20;3.70;;;;;;;10.93;100.00;100298.78;5208570;28;20056;-75
2021/10/31 08:31:08;;;;;;;6.43;3.58;;;;;;;11.15;100.00;100311.34;5206892;28;20025;-75
2021/10/31 08:33:43;;;;;;;4.57;3.03;;;;;;;11.24;100.00;100298.63;5199781;28;20393;-76
2021/10/31 08:36:14;;;;;;;4.85;3.08;;;;;;;11.45;100.00;100309.50;5199678;28;20095;-75
2021/10/31 08:38:45;;;;;;;5.68;2.75;;;;;;;11.78;100.00;100301.03;5198539;28;20025;-75
2021/10/31 08:41:18;;;;;;;3.47;2.42;;;;;;;12.19;100.00;100299.50;5197334;28;20036;-76
2021/10/31 08:43:49;;;;;;;3.55;2.45;;;;;;;12.32;100.00;100284.53;5199222;28;20025;-75
2021/10/31 08:46:20;;;;;;;6.03;2.60;;;;;;;12.22;100.00;100271.41;5199273;28;20029;-75
2021/10/31 08:48:51;;;;;;;4.78;2.38;;;;;;;12.26;100.00;100264.63;5198796;28;20075;-75
2021/10/31 08:51:24;;;;;;;4.03;2.47;;;;;;;12.29;100.00;100260.72;5199536;28;20482;-75
2021/10/31 08:53:57;;;;;;;4.60;2.35;;;;;;;12.27;100.00;100257.41;5198679;28;20026;-76
2021/10/31 08:56:29;;;;;;;7.22;2.20;;;;;;;12.28;100.00;100242.91;5198941;28;20083;-76
2021/10/31 08:59:00;;;;;;;4.53;2.35;;;;;;;12.23;100.00;100243.50;5198613;28;20034;-76
2021/10/31 09:01:30;;;;;;;3.97;2.20;;;;;;;12.29;100.00;100228.44;5198960;28;20017;-75
2021/10/31 09:04:01;;;;;;;4.57;2.45;;;;;;;12.32;100.00;100218.13;5214334;28;20033;-75
2021/10/31 09:06:31;;;;;;;2.75;2.10;;;;;;;12.37;100.00;100217.56;5198530;28;20033;-75
2021/10/31 09:09:02;;;;;;;2.65;1.88;;;;;;;12.38;100.00;100214.66;5198582;28;20017;-75
2021/10/31 09:11:32;;;;;;;4.55;2.35;;;;;;;12.35;100.00;100201.63;5198791;28;20029;-75
2021/10/31 09:14:03;;;;;;;5.97;2.30;;;;;;;12.34;100.00;100199.09;5198570;28;20101;-75
2021/10/31 09:16:34;;;;;;;9.18;3.50;;;;;;;12.37;100.00;100202.25;5198762;28;20045;-75
2021/10/31 09:19:05;;;;;;;4.43;1.60;;;;;;;12.37;100.00;100194.19;5197683;28;20057;-75
2021/10/31 09:21:36;;;;;;;4.13;1.92;;;;;;;12.48;100.00;100187.44;5198387;28;20056;-75
2021/10/31 09:24:07;;;;;;;2.65;1.90;;;;;;;12.46;100.00;100184.13;5198276;28;20030;-76
2021/10/31 09:26:37;;;;;;;3.40;1.90;;;;;;;12.80;100.00;100174.41;5198427;28;20053;-76
2021/10/31 09:29:08;;;;;;;4.20;1.92;;;;;;;13.01;100.00;100174.34;5197579;28;20073;-76
2021/10/31 09:31:38;;;;;;;2.97;1.67;;;;;;;13.29;100.00;100186.94;5198189;28;20604;-76
2021/10/31 09:34:09;;;;;;;2.45;1.65;;;;;;;13.21;100.00;100180.72;5198221;28;20099;-76
2021/10/31 09:36:40;;;;;;;2.70;1.65;;;;;;;13.32;100.00;100179.31;5198128;28;20021;-75
2021/10/31 09:39:10;;;;;;;5.43;1.70;;;;;;;13.41;100.00;100171.91;5197354;28;20514;-75
2021/10/31 09:41:41;;;;;;;3.17;1.48;;;;;;;13.57;100.00;100163.44;5197867;28;20029;-75
2021/10/31 09:44:19;;;;;;;3.47;1.67;;;;;;;13.68;100.00;100168.25;5213409;28;20116;-75
2021/10/31 09:46:50;;;;;;;2.65;1.75;;;;;;;13.66;100.00;100151.47;5198102;28;20481;-75
2021/10/31 09:49:22;;;;;;;3.60;1.60;;;;;;;13.39;100.00;100144.31;5196559;28;20096;-76
2021/10/31 09:51:53;;;;;;;5.78;1.65;;;;;;;13.28;100.00;100147.59;5205091;28;20458;-75
2021/10/31 09:54:23;;;;;;;2.50;1.40;;;;;;;13.37;100.00;100143.69;5207059;28;20037;-76
2021/10/31 09:56:54;;;;;;;5.88;1.60;;;;;;;13.42;100.00;100133.97;5207215;28;20033;-75
2021/10/31 09:59:27;;;;;;;3.67;1.50;;;;;;;13.80;100.00;100128.03;5206116;28;20141;-75
2021/10/31 10:04:38;;;;;;;6.85;2.15;;;;;;;13.68;100.00;100125.13;5206649;28;20037;-76
2021/10/31 10:07:09;;;;;;;2.25;1.30;;;;;;;13.45;100.00;100121.94;5213406;28;20020;-75
2021/10/31 10:09:50;;;;;;;1.67;1.27;;;;;;;13.31;100.00;100128.34;5206384;28;20044;-75
2021/10/31 10:12:22;;;;;;;2.00;1.20;;;;;;;13.18;100.00;100112.91;5206090;28;20673;-75
2021/10/31 10:14:59;;;;;;;3.38;1.60;;;;;;;13.11;100.00;100123.66;5206416;28;20104;-74
2021/10/31 10:17:46;;;;;;;4.93;1.48;;;;;;;13.20;100.00;100108.13;5206130;28;20029;-76
2021/10/31 10:20:18;;;;;;;3.90;1.42;;;;;;;13.32;100.00;100094.97;5206070;28;20295;-75
2021/10/31 10:22:49;;;;;;;2.05;1.10;;;;;;;13.40;100.00;100086.69;5206364;28;20029;-75
2021/10/31 10:25:19;;;;;;;2.30;1.27;;;;;;;13.53;100.00;100072.44;5206267;28;20091;-75
2021/10/31 10:27:54;;;;;;;3.58;1.20;;;;;;;13.66;100.00;100075.16;5206665;28;20027;-75
2021/10/31 10:30:25;;;;;;;2.65;1.17;;;;;;;13.52;100.00;100065.38;5206543;28;20452;-75
2021/10/31 10:32:58;;;;;;;1.90;1.27;;;;;;;13.58;100.00;100068.09;5205502;28;20025;-76
2021/10/31 10:35:29;;;;;;;3.45;1.70;;;;;;;13.38;100.00;100056.44;5206029;28;20061;-75
2021/10/31 10:38:15;;;;;;;4.80;1.40;;;;;;;13.36;100.00;100051.25;5205879;28;20080;-74
2021/10/31 10:40:46;;;;;;;2.13;1.15;;;;;;;13.39;100.00;100053.53;5204888;28;20049;-75
2021/10/31 10:43:28;;;;;;;4.88;1.45;;;;;;;13.28;100.00;100050.63;5206785;28;20565;-74
2021/10/31 10:46:10;;;;;;;1.88;1.20;;;;;;;13.28;100.00;100047.91;5205373;28;20051;-75
2021/10/31 10:48:56;;;;;;;3.22;1.50;;;;;;;13.31;100.00;100045.66;5203174;28;20116;-75
2021/10/31 10:51:26;;;;;;;6.28;1.23;;;;;;;13.30;100.00;100041.28;5205586;28;20077;-76
2021/10/31 10:54:14;;;;;;;6.57;1.20;;;;;;;13.44;100.00;100034.06;5207302;28;20033;-75
2021/10/31 10:56:59;;;;;;;3.67;1.77;;;;;;;13.42;100.00;100028.88;5205046;28;20150;-74
2021/10/31 10:59:30;;;;;;;5.10;1.00;;;;;;;13.48;100.00;100027.25;5204951;28;20037;-75
2021/10/31 11:02:10;;;;;;;2.20;1.23;;;;;;;13.65;100.00;100033.06;5206421;28;20036;-74
2021/10/31 11:04:43;;;;;;;2.45;1.10;;;;;;;13.67;100.00;100012.97;5206020;28;20072;-75
2021/10/31 11:07:14;;;;;;;3.30;1.35;;;;;;;13.68;100.00;99995.75;5205304;28;20152;-75
2021/10/31 11:09:47;;;;;;;2.83;1.40;;;;;;;13.73;100.00;99993.25;5205731;28;20573;-75
2021/10/31 11:12:30;;;;;;;1.65;1.20;;;;;;;13.83;100.00;99986.63;5206132;28;20025;-75
2021/10/31 11:15:11;;;;;;;6.32;1.58;;;;;;;13.88;100.00;99982.25;5206398;28;20493;-75
2021/10/31 11:17:43;;;;;;;2.40;1.20;;;;;;;14.04;100.00;99966.69;5204539;28;20789;-74
2021/10/31 11:20:17;;;;;;;3.50;1.10;;;;;;;14.17;100.00;99961.28;5205575;28;20022;-75
2021/10/31 11:22:51;;;;;;;2.10;1.30;;;;;;;14.43;100.00;99950.41;5205038;28;20022;-75
2021/10/31 11:25:24;;;;;;;7.07;1.38;;;;;;;14.58;100.00;99923.16;5205615;28;20021;-76
2021/10/31 11:27:57;;;;;;;3.45;1.25;;;;;;;14.69;100.00;99902.75;5205321;28;20021;-76
2021/10/31 11:30:29;;;;;;;1.98;1.08;;;;;;;14.84;100.00;99919.50;5204287;28;20036;-76
2021/10/31 11:33:02;;;;;;;3.95;1.20;;;;;;;14.95;100.00;99924.22;5205912;28;20027;-75
2021/10/31 11:35:33;;;;;;;2.22;0.90;;;;;;;15.18;100.00;99902.03;5205989;28;20037;-76
2021/10/31 11:38:08;;;;;;;1.70;0.93;;;;;;;15.28;100.00;99918.59;5205001;28;20498;-75
2021/10/31 11:40:45;;;;;;;2.42;0.90;;;;;;;15.38;100.00;99906.47;5204953;28;20248;-75
2021/10/31 11:43:19;;;;;;;5.45;1.20;;;;;;;15.55;100.00;99894.03;5206216;28;20057;-76